Time;durP1;ratioP1;P1;durP2;ratioP2;P2;SDS_P1;SDS_P2;PMS_P1;PMS_P2;Temp;Humidity;BMP_temperature;BMP_pressure;BME280_temperature;BME280_humidity;BME280_pressure;Samples;Min_cycle;Max_cycle;Signal;HPM_P1;HPM_P2
2022/01/17 00:00:49;;;;;;;17.73;12.83;;;15.20;99.90;;;;;;4243955;27;20218;-76
2022/01/17 00:02:53;;;;;;;15.60;11.97;;;15.10;99.90;;;;;;4244897;27;20213;-76
2022/01/17 00:04:57;;;;;;;15.50;11.80;;;15.10;99.90;;;;;;4245148;27;20658;-76
2022/01/17 00:06:59;;;;;;;17.73;12.80;;;15.10;99.90;;;;;;4233364;27;20229;-75
2022/01/17 00:09:02;;;;;;;15.70;11.87;;;15.10;99.90;;;;;;4229552;28;20254;-75
2022/01/17 00:11:04;;;;;;;15.47;11.73;;;15.20;99.90;;;;;;4234401;27;20205;-75
2022/01/17 00:13:10;;;;;;;16.57;12.30;;;15.10;99.90;;;;;;4228382;28;20214;-76
2022/01/17 00:15:19;;;;;;;14.57;11.53;;;15.10;99.90;;;;;;4236002;27;20209;-76
2022/01/17 00:17:31;;;;;;;15.07;12.00;;;15.10;99.90;;;;;;4230491;27;20262;-76
2022/01/17 00:19:41;;;;;;;14.37;11.33;;;15.10;99.90;;;;;;4243304;27;20206;-75
2022/01/17 00:21:44;;;;;;;17.57;12.57;;;15.10;99.90;;;;;;4240437;27;20209;-75
2022/01/17 00:23:49;;;;;;;16.47;11.97;;;15.10;99.90;;;;;;4230418;27;20635;-76
2022/01/17 00:25:51;;;;;;;16.90;12.57;;;15.10;99.90;;;;;;4244123;27;20235;-76
2022/01/17 00:27:53;;;;;;;17.30;12.13;;;15.10;99.90;;;;;;4241665;27;20232;-76
2022/01/17 00:29:56;;;;;;;16.53;12.07;;;15.10;99.90;;;;;;4229785;27;20206;-76
2022/01/17 00:31:58;;;;;;;16.90;12.40;;;15.10;99.90;;;;;;4230743;27;21081;-76
2022/01/17 00:34:01;;;;;;;15.70;12.17;;;15.10;99.90;;;;;;4241436;27;20423;-76
2022/01/17 00:36:04;;;;;;;17.07;11.97;;;15.10;99.90;;;;;;4241620;27;20254;-76
2022/01/17 00:38:08;;;;;;;16.73;12.20;;;15.10;99.90;;;;;;4243192;27;20262;-76
2022/01/17 00:40:12;;;;;;;15.73;11.53;;;15.10;99.90;;;;;;4227988;28;20194;-76
2022/01/17 00:42:14;;;;;;;16.70;12.53;;;15.10;99.90;;;;;;4229507;28;20558;-76
2022/01/17 00:44:21;;;;;;;17.07;12.07;;;15.10;99.90;;;;;;4242776;27;20781;-76
2022/01/17 00:46:23;;;;;;;16.38;12.05;;;15.10;99.90;;;;;;4229444;28;20218;-75
2022/01/17 00:48:25;;;;;;;16.80;11.83;;;15.10;99.90;;;;;;4240899;27;20281;-76
2022/01/17 00:50:31;;;;;;;15.93;12.03;;;15.10;99.90;;;;;;4242111;27;20281;-76
2022/01/17 00:52:33;;;;;;;14.60;11.30;;;15.10;99.90;;;;;;4230478;27;20767;-76
2022/01/17 00:54:37;;;;;;;16.60;11.57;;;15.10;99.90;;;;;;4232137;27;20214;-76
2022/01/17 00:56:39;;;;;;;16.93;12.10;;;15.10;99.90;;;;;;4228840;28;20214;-75
2022/01/17 00:58:42;;;;;;;15.97;11.97;;;15.10;99.90;;;;;;4240093;27;20261;-76
2022/01/17 01:00:45;;;;;;;15.07;12.00;;;15.10;99.90;;;;;;4227531;27;20209;-76
2022/01/17 01:02:47;;;;;;;17.20;12.77;;;15.00;99.90;;;;;;4227766;27;20210;-76
2022/01/17 01:04:49;;;;;;;15.23;11.57;;;15.10;99.90;;;;;;4238785;27;20216;-76
2022/01/17 01:06:52;;;;;;;15.20;12.10;;;15.10;99.90;;;;;;4243538;27;20266;-76
2022/01/17 01:08:54;;;;;;;16.03;11.83;;;15.10;99.90;;;;;;4240961;27;20233;-76
2022/01/17 01:10:58;;;;;;;15.37;11.50;;;15.10;99.90;;;;;;4234076;27;20210;-76
2022/01/17 01:13:01;;;;;;;16.73;11.93;;;15.10;99.90;;;;;;4240202;27;20288;-75
2022/01/17 01:15:05;;;;;;;16.03;11.77;;;15.00;99.90;;;;;;4233276;27;20267;-78
2022/01/17 01:17:19;;;;;;;17.50;12.17;;;15.00;99.90;;;;;;4229918;27;20225;-75
2022/01/17 01:19:28;;;;;;;17.80;12.97;;;15.00;99.90;;;;;;4239676;27;20213;-75
2022/01/17 01:21:47;;;;;;;14.67;11.67;;;15.00;99.90;;;;;;4241550;27;20254;-75
2022/01/17 01:28:28;;;;;;;16.70;11.77;;;15.00;99.90;;;;;;4228271;28;20209;-75
2022/01/17 01:30:32;;;;;;;14.73;11.50;;;15.00;99.90;;;;;;4229949;28;20218;-75
2022/01/17 01:32:41;;;;;;;16.47;12.03;;;15.00;99.90;;;;;;4229956;28;20279;-75
2022/01/17 01:34:51;;;;;;;14.97;11.27;;;15.00;99.90;;;;;;4230250;28;20258;-75
2022/01/17 01:36:53;;;;;;;16.17;12.40;;;15.00;99.90;;;;;;4230345;28;20214;-75
2022/01/17 01:38:56;;;;;;;17.33;12.47;;;15.00;99.90;;;;;;4229890;28;20322;-75
2022/01/17 01:40:59;;;;;;;15.80;11.87;;;15.00;99.90;;;;;;4220604;28;20214;-75
2022/01/17 01:43:02;;;;;;;16.57;12.07;;;15.10;99.90;;;;;;4230609;28;20683;-75
2022/01/17 01:45:07;;;;;;;16.73;13.10;;;15.00;99.90;;;;;;4230313;28;20218;-75
2022/01/17 01:47:09;;;;;;;16.20;12.07;;;15.00;99.90;;;;;;4229814;28;20262;-75
2022/01/17 01:49:12;;;;;;;17.73;12.53;;;15.00;99.90;;;;;;4229917;28;20634;-75
2022/01/17 01:51:16;;;;;;;16.67;12.03;;;15.00;99.90;;;;;;4230086;28;20214;-75
2022/01/17 01:53:18;;;;;;;16.70;12.73;;;15.00;99.90;;;;;;4229966;28;20588;-75
2022/01/17 01:55:21;;;;;;;16.47;12.53;;;15.00;99.90;;;;;;4230170;28;20214;-75
2022/01/17 01:57:23;;;;;;;17.23;12.07;;;15.00;99.90;;;;;;4230127;28;20201;-75
2022/01/17 01:59:27;;;;;;;15.67;11.43;;;15.00;99.90;;;;;;4230190;28;20659;-75
2022/01/17 02:01:30;;;;;;;16.83;12.23;;;15.00;99.90;;;;;;4230134;28;20210;-75
2022/01/17 02:03:32;;;;;;;14.63;11.33;;;15.00;99.90;;;;;;4229823;28;20205;-75
2022/01/17 02:05:34;;;;;;;18.07;12.60;;;15.00;99.90;;;;;;4229770;28;20205;-75
2022/01/17 02:07:38;;;;;;;16.07;12.07;;;15.00;99.90;;;;;;4229984;28;20201;-75
2022/01/17 02:09:42;;;;;;;14.70;11.60;;;15.00;99.90;;;;;;4229689;28;20233;-75
2022/01/17 02:11:44;;;;;;;17.03;12.67;;;15.00;99.90;;;;;;4235715;27;20263;-75
2022/01/17 02:13:47;;;;;;;16.30;12.13;;;15.00;99.90;;;;;;4229704;28;20210;-75
2022/01/17 02:15:51;;;;;;;17.23;12.27;;;15.00;99.90;;;;;;4229759;28;20205;-75
2022/01/17 02:17:55;;;;;;;15.57;12.37;;;15.00;99.90;;;;;;4221442;28;20213;-75
2022/01/17 02:20:05;;;;;;;16.10;12.37;;;15.00;99.90;;;;;;4229817;28;20607;-75
2022/01/17 02:22:08;;;;;;;14.97;12.33;;;15.00;99.90;;;;;;4229840;28;20213;-75
2022/01/17 02:24:10;;;;;;;16.00;12.23;;;15.00;99.90;;;;;;4229491;28;20263;-75
2022/01/17 02:26:13;;;;;;;14.70;11.77;;;15.00;99.90;;;;;;4229853;28;20282;-75
2022/01/17 02:28:16;;;;;;;14.73;11.77;;;15.00;99.90;;;;;;4229578;28;20303;-75
2022/01/17 02:30:22;;;;;;;15.20;11.70;;;15.00;99.90;;;;;;4229998;28;20210;-75
2022/01/17 02:32:25;;;;;;;16.73;11.53;;;15.00;99.90;;;;;;4229757;28;20229;-75
2022/01/17 02:34:27;;;;;;;15.27;11.53;;;15.00;99.90;;;;;;4229865;28;20682;-75
2022/01/17 02:36:31;;;;;;;14.07;11.50;;;15.00;99.90;;;;;;4229661;28;20272;-75
2022/01/17 02:38:33;;;;;;;15.00;11.67;;;15.00;99.90;;;;;;4230809;28;20266;-75
2022/01/17 02:40:36;;;;;;;16.27;11.80;;;15.00;99.90;;;;;;4228329;28;20214;-75
2022/01/17 02:42:38;;;;;;;16.03;11.10;;;15.00;99.90;;;;;;4229975;28;20213;-75
2022/01/17 02:44:45;;;;;;;14.50;11.60;;;15.00;99.90;;;;;;4233120;28;20274;-75
2022/01/17 02:46:47;;;;;;;16.10;11.80;;;14.90;99.90;;;;;;4233119;28;20218;-75
2022/01/17 02:48:49;;;;;;;14.73;11.67;;;14.90;99.90;;;;;;4233379;28;20233;-75
2022/01/17 02:50:53;;;;;;;14.63;11.27;;;14.90;99.90;;;;;;4226994;28;20225;-75
2022/01/17 02:53:00;;;;;;;13.17;10.90;;;15.00;99.90;;;;;;4232605;28;20273;-75
2022/01/17 02:55:02;;;;;;;14.57;11.50;;;15.00;99.90;;;;;;4232596;28;20286;-75
2022/01/17 02:57:07;;;;;;;15.83;11.60;;;14.90;99.90;;;;;;4232942;28;20275;-75
2022/01/17 02:59:09;;;;;;;15.83;11.47;;;14.90;99.90;;;;;;4232160;28;20274;-75
2022/01/17 03:01:16;;;;;;;14.93;11.17;;;15.00;99.90;;;;;;4232932;28;20275;-75
2022/01/17 03:03:21;;;;;;;15.73;11.80;;;15.00;99.90;;;;;;4232405;28;20243;-75
2022/01/17 03:05:24;;;;;;;15.27;11.33;;;14.90;99.90;;;;;;4232742;28;20271;-75
2022/01/17 03:07:26;;;;;;;14.70;11.13;;;15.00;99.90;;;;;;4233144;28;20279;-75
2022/01/17 03:09:39;;;;;;;14.67;11.40;;;14.90;99.90;;;;;;4227185;28;20273;-75
2022/01/17 03:11:41;;;;;;;15.57;11.37;;;14.90;99.90;;;;;;4231905;27;20209;-75
2022/01/17 03:13:44;;;;;;;15.10;11.93;;;14.90;99.90;;;;;;4232593;28;20210;-75
2022/01/17 03:15:53;;;;;;;15.10;11.30;;;14.90;99.90;;;;;;4232926;28;20685;-75
2022/01/17 03:17:55;;;;;;;14.13;10.83;;;14.90;99.90;;;;;;4224970;28;20259;-75
2022/01/17 03:19:57;;;;;;;14.67;11.63;;;14.90;99.90;;;;;;4232883;28;20255;-75
2022/01/17 03:22:00;;;;;;;14.97;10.87;;;14.90;99.90;;;;;;4232644;28;20375;-75
2022/01/17 03:24:03;;;;;;;14.73;11.50;;;14.90;99.90;;;;;;4232132;28;20254;-75
2022/01/17 03:26:07;;;;;;;14.57;12.03;;;14.90;99.90;;;;;;4232546;28;20202;-75
2022/01/17 03:28:10;;;;;;;14.97;11.40;;;14.90;99.90;;;;;;4231946;28;20221;-75
2022/01/17 03:30:12;;;;;;;15.07;11.50;;;14.90;99.90;;;;;;4232267;28;20230;-75
2022/01/17 03:32:15;;;;;;;15.57;11.70;;;14.90;99.90;;;;;;4231600;28;20225;-75
2022/01/17 03:34:17;;;;;;;14.90;11.67;;;14.90;99.90;;;;;;4231461;28;20259;-77
2022/01/17 03:36:20;;;;;;;14.17;11.70;;;14.90;99.90;;;;;;4231193;28;20210;-75
2022/01/17 03:38:24;;;;;;;15.63;11.60;;;14.90;99.90;;;;;;4231020;28;20214;-75
2022/01/17 03:40:27;;;;;;;14.63;11.23;;;14.90;99.90;;;;;;4227541;28;20256;-75
2022/01/17 03:42:30;;;;;;;17.73;12.10;;;15.00;99.90;;;;;;4227009;28;20209;-76
2022/01/17 03:44:33;;;;;;;13.77;11.27;;;14.90;99.90;;;;;;4230746;28;20726;-75
2022/01/17 03:46:35;;;;;;;16.70;11.53;;;14.90;99.90;;;;;;4231395;28;20723;-78
2022/01/17 03:48:38;;;;;;;16.53;11.67;;;14.90;99.90;;;;;;4230706;28;20267;-76
2022/01/17 03:50:41;;;;;;;14.67;11.73;;;14.90;99.90;;;;;;4230700;28;20237;-76
2022/01/17 03:52:43;;;;;;;14.33;11.37;;;14.90;99.90;;;;;;4230452;28;20218;-77
2022/01/17 03:54:46;;;;;;;15.43;11.10;;;14.90;99.90;;;;;;4231156;28;20271;-78
2022/01/17 03:56:48;;;;;;;13.73;10.77;;;14.90;99.90;;;;;;4231401;28;20194;-75
2022/01/17 03:58:52;;;;;;;14.00;11.20;;;14.90;99.90;;;;;;4231263;28;20225;-75
2022/01/17 04:00:56;;;;;;;14.83;11.77;;;14.90;99.90;;;;;;4231048;28;20255;-75
2022/01/17 04:02:59;;;;;;;15.83;11.77;;;14.90;99.90;;;;;;4231407;28;20218;-75
2022/01/17 04:05:02;;;;;;;13.67;10.90;;;14.90;99.90;;;;;;4230918;28;20218;-76
2022/01/17 04:07:04;;;;;;;14.53;10.63;;;14.90;99.90;;;;;;4231170;28;20794;-77
2022/01/17 04:09:07;;;;;;;15.17;10.90;;;14.90;99.90;;;;;;4230786;28;20209;-77
2022/01/17 04:11:09;;;;;;;12.80;11.10;;;14.90;99.90;;;;;;4234230;28;20665;-77
2022/01/17 04:13:12;;;;;;;13.37;11.03;;;14.90;99.90;;;;;;4231104;28;20275;-77
2022/01/17 04:15:16;;;;;;;14.07;11.27;;;14.90;99.90;;;;;;4230604;28;20222;-78
2022/01/17 04:17:18;;;;;;;14.00;10.73;;;14.90;99.90;;;;;;4222890;28;20258;-78
2022/01/17 04:19:20;;;;;;;13.47;11.20;;;14.90;99.90;;;;;;4231033;28;20318;-77
2022/01/17 04:21:23;;;;;;;13.87;10.83;;;14.90;99.90;;;;;;4230746;28;20210;-77
2022/01/17 04:23:25;;;;;;;14.73;10.57;;;14.90;99.90;;;;;;4230985;28;20202;-77
2022/01/17 04:25:30;;;;;;;14.07;11.53;;;14.80;99.90;;;;;;4230391;28;20205;-77
2022/01/17 04:27:32;;;;;;;13.43;10.87;;;14.90;99.90;;;;;;4230890;28;20251;-77
2022/01/17 04:29:35;;;;;;;15.80;12.13;;;14.90;99.90;;;;;;4230000;28;20209;-77
2022/01/17 04:31:39;;;;;;;15.57;11.37;;;14.90;99.90;;;;;;4181869;28;1369319;-77
2022/01/17 04:33:42;;;;;;;14.03;10.63;;;14.90;99.90;;;;;;4231147;28;20209;-77
2022/01/17 04:35:45;;;;;;;13.13;10.80;;;14.90;99.90;;;;;;4231308;28;20715;-77
2022/01/17 04:37:49;;;;;;;12.83;11.03;;;14.90;99.90;;;;;;4224560;28;20260;-77
2022/01/17 04:39:51;;;;;;;12.07;10.37;;;14.80;99.90;;;;;;4221438;28;20255;-77
2022/01/17 04:41:56;;;;;;;12.73;10.43;;;14.90;99.90;;;;;;4231248;28;20252;-77
2022/01/17 04:45:07;;;;;;;13.90;10.93;;;14.90;99.90;;;;;;4231329;28;20206;-77
2022/01/17 04:46:21;;;;;;;13.40;10.53;;;14.90;99.90;;;;;;4230969;28;20210;-77
2022/01/17 04:48:26;;;;;;;12.57;10.40;;;14.90;99.90;;;;;;4230720;28;20209;-77
2022/01/17 04:50:29;;;;;;;13.53;10.20;;;14.90;99.90;;;;;;4230590;28;20278;-77
2022/01/17 04:52:31;;;;;;;13.33;10.57;;;14.90;99.90;;;;;;4231124;28;20217;-77
2022/01/17 04:54:40;;;;;;;13.10;9.57;;;14.90;99.90;;;;;;4231205;28;20715;-77
2022/01/17 04:56:43;;;;;;;14.77;11.47;;;14.90;99.90;;;;;;4230610;28;20255;-77
2022/01/17 04:58:45;;;;;;;13.33;10.93;;;14.90;99.90;;;;;;4224455;28;20599;-77
2022/01/17 05:00:48;;;;;;;14.40;10.67;;;14.80;99.90;;;;;;4228960;28;20210;-78
2022/01/17 05:02:51;;;;;;;13.67;11.10;;;14.90;99.90;;;;;;4230705;28;20267;-77
2022/01/17 05:04:54;;;;;;;14.03;10.83;;;14.80;99.90;;;;;;4230343;28;20632;-77
2022/01/17 05:06:57;;;;;;;12.47;10.47;;;14.80;99.90;;;;;;4230935;28;20209;-77
2022/01/17 05:08:59;;;;;;;14.10;11.03;;;14.80;99.90;;;;;;4230748;28;20236;-77
2022/01/17 05:11:02;;;;;;;15.57;11.47;;;14.80;99.90;;;;;;4235808;27;20282;-77
2022/01/17 05:13:05;;;;;;;13.47;10.67;;;14.80;99.90;;;;;;4230918;28;20213;-77
2022/01/17 05:15:17;;;;;;;13.30;10.43;;;14.80;99.90;;;;;;4230385;28;20259;-77
2022/01/17 05:17:36;;;;;;;13.40;10.87;;;14.80;99.90;;;;;;4230078;28;20209;-77
2022/01/17 05:19:54;;;;;;;15.53;11.30;;;14.80;99.90;;;;;;4230821;28;20615;-77
2022/01/17 05:21:58;;;;;;;14.10;10.63;;;14.80;99.90;;;;;;4230822;28;20228;-77
2022/01/17 05:24:00;;;;;;;13.83;10.47;;;14.80;99.90;;;;;;4230329;28;20209;-77
2022/01/17 05:26:02;;;;;;;15.57;11.27;;;14.80;99.90;;;;;;4230720;28;20223;-77
2022/01/17 05:28:05;;;;;;;14.07;10.50;;;14.80;99.90;;;;;;4230872;28;20202;-77
2022/01/17 05:30:10;;;;;;;12.73;10.53;;;14.80;99.90;;;;;;4229734;28;20251;-77
2022/01/17 05:32:13;;;;;;;11.90;10.07;;;14.80;99.90;;;;;;4229709;28;20237;-77
2022/01/17 05:34:15;;;;;;;14.00;10.70;;;14.80;99.90;;;;;;4230566;28;20213;-77
2022/01/17 05:36:18;;;;;;;12.50;10.53;;;14.80;99.90;;;;;;4229690;28;20205;-77
2022/01/17 05:38:21;;;;;;;13.73;10.73;;;14.80;99.90;;;;;;4230242;28;20214;-77
2022/01/17 05:40:24;;;;;;;13.37;10.90;;;14.80;99.90;;;;;;4227240;28;20252;-77
2022/01/17 05:42:27;;;;;;;13.17;10.50;;;14.80;99.90;;;;;;4226292;28;20674;-77
2022/01/17 05:44:29;;;;;;;16.07;11.80;;;14.80;99.90;;;;;;4230271;28;20213;-77
2022/01/17 05:46:31;;;;;;;15.60;11.77;;;14.80;99.90;;;;;;4230494;28;20209;-77
2022/01/17 05:48:33;;;;;;;13.00;10.70;;;14.80;99.90;;;;;;4230391;28;20337;-77
2022/01/17 05:50:36;;;;;;;14.37;11.20;;;14.80;99.90;;;;;;4229460;28;20226;-77
2022/01/17 05:52:39;;;;;;;16.10;11.03;;;14.80;99.90;;;;;;4230436;28;20669;-77
2022/01/17 05:54:44;;;;;;;14.53;11.20;;;14.60;99.90;;;;;;4230000;28;20735;-77
2022/01/17 05:56:46;;;;;;;13.40;10.60;;;14.40;99.90;;;;;;4230037;28;20225;-77
2022/01/17 05:58:48;;;;;;;13.87;10.93;;;14.30;99.90;;;;;;4216497;28;20223;-77
2022/01/17 06:00:52;;;;;;;13.53;11.10;;;14.20;99.90;;;;;;4228709;28;20254;-77
2022/01/17 06:02:54;;;;;;;14.13;11.37;;;14.30;99.90;;;;;;4229896;28;20605;-77
2022/01/17 06:04:56;;;;;;;13.60;10.83;;;14.60;99.90;;;;;;4229774;28;20263;-78
2022/01/17 06:06:59;;;;;;;13.67;10.47;;;14.70;99.90;;;;;;4230275;28;20270;-78
2022/01/17 06:09:01;;;;;;;13.07;11.17;;;14.90;99.90;;;;;;4230552;28;20642;-78
2022/01/17 06:11:05;;;;;;;14.07;11.50;;;15.00;99.90;;;;;;4233067;27;20305;-78
2022/01/17 06:13:07;;;;;;;15.53;12.20;;;15.00;99.90;;;;;;4229378;28;20271;-78
2022/01/17 06:15:10;;;;;;;17.57;12.83;;;15.10;99.90;;;;;;4229512;28;20278;-78
2022/01/17 06:17:13;;;;;;;13.90;11.47;;;15.10;99.90;;;;;;4229829;28;20255;-77
2022/01/17 06:19:15;;;;;;;14.50;11.90;;;15.10;99.90;;;;;;4229999;28;20218;-77
2022/01/17 06:21:17;;;;;;;14.17;11.37;;;15.20;99.90;;;;;;4229787;28;20233;-78
2022/01/17 06:23:21;;;;;;;18.60;13.13;;;15.20;99.90;;;;;;4229623;28;20266;-77
2022/01/17 06:25:23;;;;;;;17.03;12.80;;;15.30;99.90;;;;;;4228984;28;20213;-77
2022/01/17 06:27:27;;;;;;;16.53;12.10;;;15.30;99.90;;;;;;4221708;28;20240;-77
2022/01/17 06:29:29;;;;;;;15.03;12.43;;;15.30;99.90;;;;;;4229090;28;20591;-78
2022/01/17 06:31:32;;;;;;;17.60;13.40;;;15.30;99.90;;;;;;4229867;28;20218;-77
2022/01/17 06:33:34;;;;;;;16.07;12.70;;;15.30;99.90;;;;;;4229887;28;20258;-77
2022/01/17 06:35:37;;;;;;;15.17;12.73;;;15.30;99.90;;;;;;4229370;28;20202;-77
2022/01/17 06:37:44;;;;;;;15.90;12.70;;;15.40;99.90;;;;;;4229183;28;20206;-77
2022/01/17 06:39:46;;;;;;;17.33;13.70;;;15.40;99.90;;;;;;4229606;28;20243;-77
2022/01/17 06:41:50;;;;;;;16.83;13.70;;;15.40;99.90;;;;;;4229730;28;20405;-77
2022/01/17 06:43:54;;;;;;;16.73;12.77;;;15.40;99.90;;;;;;4228848;28;20201;-77
2022/01/17 06:45:56;;;;;;;15.90;13.10;;;15.50;99.90;;;;;;4222642;28;20297;-78
2022/01/17 06:47:59;;;;;;;17.00;13.03;;;15.40;99.90;;;;;;4219665;28;20210;-77
2022/01/17 06:50:04;;;;;;;16.43;13.03;;;15.50;99.90;;;;;;4220852;28;20243;-78
2022/01/17 06:52:07;;;;;;;16.00;13.27;;;15.50;99.90;;;;;;4228678;28;20263;-77
2022/01/17 06:54:10;;;;;;;14.10;11.38;;;15.50;99.90;;;;;;4228760;28;20217;-77
2022/01/17 06:56:12;;;;;;;15.90;12.80;;;15.50;99.90;;;;;;4228527;28;20830;-77
2022/01/17 06:58:14;;;;;;;17.03;13.60;;;15.50;99.90;;;;;;4228697;28;20638;-78
2022/01/17 07:00:18;;;;;;;17.27;13.67;;;15.50;99.90;;;;;;4229521;28;20214;-77
2022/01/17 07:02:21;;;;;;;15.60;12.17;;;15.50;99.90;;;;;;4229503;28;20206;-77
2022/01/17 07:04:23;;;;;;;15.35;12.23;;;15.50;99.90;;;;;;4229824;28;20286;-78
2022/01/17 07:06:25;;;;;;;15.37;11.83;;;15.60;99.90;;;;;;4229881;28;20247;-77
2022/01/17 07:08:28;;;;;;;14.90;11.40;;;15.60;99.90;;;;;;4229357;28;20259;-75
2022/01/17 07:10:30;;;;;;;14.97;12.20;;;15.60;99.90;;;;;;4228862;28;20667;-77
2022/01/17 07:12:35;;;;;;;19.07;14.23;;;15.70;99.90;;;;;;4232991;28;20279;-77
2022/01/17 07:14:41;;;;;;;17.90;12.02;;;15.60;99.90;;;;;;4229364;28;20210;-78
2022/01/17 07:16:46;;;;;;;14.73;11.17;;;15.70;99.90;;;;;;4229464;28;20213;-77
2022/01/17 07:18:48;;;;;;;14.60;10.82;;;15.70;99.90;;;;;;4229161;28;20230;-77
2022/01/17 07:20:50;;;;;;;16.17;13.13;;;15.60;99.90;;;;;;4229465;28;20210;-78
2022/01/17 07:22:53;;;;;;;16.70;13.30;;;15.70;99.90;;;;;;4229258;28;20263;-77
2022/01/17 07:24:56;;;;;;;15.10;11.13;;;15.70;99.90;;;;;;4231335;28;20221;-77
2022/01/17 07:26:58;;;;;;;15.20;12.02;;;15.70;99.90;;;;;;4232411;28;20729;-77
2022/01/17 07:29:01;;;;;;;16.47;13.20;;;15.70;99.90;;;;;;4231979;28;20262;-78
2022/01/17 07:31:04;;;;;;;14.63;11.37;;;15.70;99.90;;;;;;4232657;28;20214;-78
2022/01/17 07:33:08;;;;;;;15.00;11.50;;;15.70;99.90;;;;;;4232093;28;20646;-77
2022/01/17 07:35:11;;;;;;;14.80;11.07;;;15.70;99.90;;;;;;4232812;28;20960;-77
2022/01/17 07:37:13;;;;;;;12.27;10.77;;;15.70;99.90;;;;;;4232387;28;20259;-77
2022/01/17 07:39:16;;;;;;;13.70;11.05;;;15.80;99.90;;;;;;4232286;28;20214;-77
2022/01/17 07:41:19;;;;;;;14.20;11.38;;;15.80;99.90;;;;;;4232402;28;20243;-77
2022/01/17 07:43:21;;;;;;;12.38;10.32;;;15.70;99.90;;;;;;4231993;28;20210;-77
2022/01/17 07:45:25;;;;;;;14.80;11.15;;;15.80;99.90;;;;;;4232575;28;20247;-77
2022/01/17 07:47:40;;;;;;;12.95;10.40;;;15.70;99.90;;;;;;4232109;28;20214;-78
2022/01/17 07:49:45;;;;;;;12.52;10.10;;;15.70;99.90;;;;;;4232566;28;20210;-81
2022/01/17 07:51:49;;;;;;;12.52;10.65;;;15.80;99.90;;;;;;4233487;28;20294;-78
2022/01/17 07:53:52;;;;;;;13.55;11.07;;;15.80;99.90;;;;;;4232866;28;20205;-78
2022/01/17 07:55:55;;;;;;;14.70;11.25;;;15.80;99.90;;;;;;4228626;28;20214;-80
2022/01/17 07:57:58;;;;;;;15.85;11.75;;;15.80;99.90;;;;;;4222161;28;21469;-80
2022/01/17 08:00:00;;;;;;;14.23;11.45;;;15.70;99.90;;;;;;4221473;28;20210;-82
2022/01/17 08:02:12;;;;;;;15.30;11.38;;;15.80;99.90;;;;;;4230635;28;20210;-81
2022/01/17 08:04:14;;;;;;;16.67;12.93;;;15.90;99.90;;;;;;4230517;28;20628;-81
2022/01/17 08:06:19;;;;;;;17.52;13.20;;;16.10;99.90;;;;;;4226928;28;20294;-81
2022/01/17 08:08:21;;;;;;;15.65;12.45;;;16.10;99.90;;;;;;4235921;27;20603;-82
2022/01/17 08:10:24;;;;;;;23.90;11.90;;;16.20;99.90;;;;;;4221772;28;20268;-81
2022/01/17 08:12:26;;;;;;;15.07;11.68;;;16.40;99.90;;;;;;4226161;27;20632;-81
2022/01/17 08:14:29;;;;;;;13.75;11.38;;;16.50;99.90;;;;;;4238926;27;20213;-83
2022/01/17 08:16:31;;;;;;;12.55;10.30;;;16.60;99.90;;;;;;4229006;27;20209;-83
2022/01/17 08:18:34;;;;;;;15.00;11.10;;;16.70;99.90;;;;;;4229199;27;20213;-82
2022/01/17 08:20:37;;;;;;;14.38;11.35;;;16.80;99.90;;;;;;4231239;27;20218;-81
2022/01/17 08:22:43;;;;;;;11.77;9.88;;;16.80;99.90;;;;;;4224590;27;20654;-81
2022/01/17 08:24:46;;;;;;;13.13;9.48;;;16.90;99.90;;;;;;4223861;28;20217;-83
2022/01/17 08:26:50;;;;;;;12.93;10.15;;;16.70;99.90;;;;;;4231957;27;20736;-82
2022/01/17 08:28:53;;;;;;;11.60;9.63;;;16.80;99.90;;;;;;4224016;28;20635;-82
2022/01/17 08:30:55;;;;;;;14.95;9.50;;;16.90;99.90;;;;;;4227854;27;20218;-81
2022/01/17 08:32:58;;;;;;;14.65;10.43;;;16.90;99.90;;;;;;4227118;27;20229;-81
2022/01/17 08:35:00;;;;;;;13.38;9.45;;;16.90;99.90;;;;;;4241120;27;20261;-82
2022/01/17 08:37:04;;;;;;;11.48;9.30;;;17.10;99.90;;;;;;4230647;27;20217;-81
2022/01/17 08:39:10;;;;;;;9.35;8.23;;;17.20;99.90;;;;;;4220810;27;20214;-81
2022/01/17 08:41:13;;;;;;;15.75;8.82;;;17.20;99.90;;;;;;4227549;27;20603;-80
2022/01/17 08:43:15;;;;;;;11.45;8.63;;;17.30;99.90;;;;;;4226118;28;20218;-82
2022/01/17 08:45:21;;;;;;;11.65;8.35;;;17.30;99.90;;;;;;4231161;27;20248;-80
2022/01/17 08:47:25;;;;;;;12.50;8.68;;;17.30;99.90;;;;;;4227446;28;20255;-81
2022/01/17 08:49:28;;;;;;;10.80;8.52;;;17.30;99.90;;;;;;4227043;27;20214;-80
2022/01/17 08:51:30;;;;;;;11.25;8.70;;;17.40;99.90;;;;;;4231981;27;20664;-81
2022/01/17 08:53:33;;;;;;;11.43;8.40;;;17.40;99.90;;;;;;4232185;27;20233;-80
2022/01/17 08:55:37;;;;;;;15.63;8.85;;;17.60;99.90;;;;;;4228401;27;20213;-80
2022/01/17 08:57:39;;;;;;;11.75;8.68;;;17.60;99.90;;;;;;4222610;27;20780;-81
2022/01/17 08:59:42;;;;;;;16.63;11.13;;;17.60;99.90;;;;;;4225988;27;20658;-81
2022/01/17 09:01:44;;;;;;;12.85;8.57;;;17.60;99.90;;;;;;4225691;27;20217;-81
2022/01/17 09:03:47;;;;;;;11.52;8.05;;;17.60;99.90;;;;;;4225172;27;20250;-80
2022/01/17 09:05:50;;;;;;;12.32;8.32;;;17.70;99.90;;;;;;4226475;28;20286;-79
2022/01/17 09:07:53;;;;;;;10.82;7.95;;;17.80;99.90;;;;;;4224457;27;20248;-80
2022/01/17 09:09:55;;;;;;;14.25;8.60;;;17.80;99.90;;;;;;4218980;28;20226;-80
2022/01/17 09:11:59;;;;;;;10.73;7.90;;;17.80;99.90;;;;;;4225013;27;20213;-78
2022/01/17 09:14:01;;;;;;;16.02;9.15;;;17.90;99.90;;;;;;4224208;27;20270;-76
2022/01/17 09:16:04;;;;;;;15.57;8.20;;;18.00;99.90;;;;;;4229560;27;20263;-78
2022/01/17 09:18:07;;;;;;;17.13;8.60;;;18.00;99.90;;;;;;4226362;27;20221;-76
2022/01/17 09:20:11;;;;;;;14.40;7.50;;;18.10;99.90;;;;;;4220417;28;20217;-75
2022/01/17 09:22:13;;;;;;;17.17;8.13;;;18.00;99.90;;;;;;4222930;28;20217;-78
2022/01/17 09:24:16;;;;;;;10.05;7.43;;;18.10;99.90;;;;;;4229449;27;20221;-77
2022/01/17 09:26:21;;;;;;;11.15;7.38;;;18.10;99.90;;;;;;4224858;27;20217;-76
2022/01/17 09:28:25;;;;;;;9.77;7.32;;;18.20;99.90;;;;;;4222853;28;20218;-77
2022/01/17 09:30:28;;;;;;;19.02;7.70;;;18.30;99.90;;;;;;4213226;27;20219;-76
2022/01/17 09:32:30;;;;;;;16.10;8.00;;;18.30;99.90;;;;;;4222664;27;20369;-77
2022/01/17 09:34:33;;;;;;;13.02;8.15;;;18.40;99.90;;;;;;4226343;27;20209;-77
2022/01/17 09:36:35;;;;;;;16.70;8.60;;;18.30;99.90;;;;;;4222398;27;20603;-75
2022/01/17 09:38:38;;;;;;;17.35;8.50;;;18.40;99.90;;;;;;4228002;27;20293;-76
2022/01/17 09:40:41;;;;;;;18.02;10.93;;;18.50;99.90;;;;;;4222295;28;20218;-75
2022/01/17 09:42:43;;;;;;;22.75;9.48;;;18.50;99.90;;;;;;4226891;27;20209;-76
2022/01/17 09:44:47;;;;;;;14.65;9.48;;;18.60;99.90;;;;;;4225747;27;20654;-75
2022/01/17 09:46:53;;;;;;;19.90;10.52;;;18.60;99.90;;;;;;4218377;28;20206;-75
2022/01/17 09:49:12;;;;;;;15.63;8.15;;;18.70;99.90;;;;;;4225334;28;20221;-75
2022/01/17 09:51:33;;;;;;;17.55;8.43;;;18.80;99.90;;;;;;4226107;28;20253;-74
2022/01/17 09:53:38;;;;;;;14.75;10.10;;;18.80;99.90;;;;;;4225630;28;20601;-75
2022/01/17 09:55:41;;;;;;;14.95;9.20;;;18.80;99.90;;;;;;4222078;28;20217;-74
2022/01/17 09:57:49;;;;;;;12.18;7.88;;;18.70;99.90;;;;;;4219482;28;20214;-74
2022/01/17 09:59:53;;;;;;;12.15;8.00;;;18.70;99.90;;;;;;4222152;28;20267;-74
2022/01/17 10:01:55;;;;;;;13.93;7.50;;;18.70;99.90;;;;;;4223148;27;20255;-74
2022/01/17 10:03:57;;;;;;;16.85;8.20;;;18.80;99.90;;;;;;4222334;27;20699;-74
2022/01/17 10:06:00;;;;;;;14.23;8.00;;;18.80;99.90;;;;;;4221555;28;21322;-74
2022/01/17 10:08:04;;;;;;;9.20;6.97;;;18.80;99.90;;;;;;4222757;28;20635;-74
2022/01/17 10:10:07;;;;;;;10.18;7.10;;;18.80;99.90;;;;;;4220187;28;20213;-75
2022/01/17 10:12:11;;;;;;;13.13;8.30;;;18.90;99.90;;;;;;4224501;27;20217;-75
2022/01/17 10:14:24;;;;;;;9.55;6.40;;;19.00;99.90;;;;;;4218903;28;20237;-74
2022/01/17 10:16:29;;;;;;;12.25;7.72;;;18.90;99.90;;;;;;4221387;28;20251;-75
2022/01/17 10:18:37;;;;;;;9.70;6.20;;;19.00;99.90;;;;;;4226501;27;20217;-74
2022/01/17 10:20:51;;;;;;;11.05;6.53;;;19.10;99.90;;;;;;4219798;28;20209;-74
2022/01/17 10:23:16;;;;;;;9.82;6.53;;;19.10;99.90;;;;;;4221286;27;20559;-75
2022/01/17 10:25:28;;;;;;;10.55;6.60;;;19.10;99.90;;;;;;4221559;27;20251;-74
2022/01/17 10:28:10;;;;;;;7.38;5.90;;;19.10;99.90;;;;;;4223902;28;20269;-76
2022/01/17 10:34:54;;;;;;;16.00;6.75;;;19.10;99.90;;;;;;4222098;28;20654;-74
2022/01/17 10:36:58;;;;;;;13.65;7.38;;;19.10;99.90;;;;;;4224700;28;20214;-74
2022/01/17 10:39:06;;;;;;;11.88;7.22;;;19.10;99.90;;;;;;4225785;28;20217;-74